Disclaimer

Please do not use the information listed here in-flight or in-navigation, as they are not provided to us by the airports but are provided by volunteers, so they might be outdated.

Search


Regions


Airport information page

Radio informations:
Aerodrome flight information system (AFIS) - 118.1 MHz

Airport informations:
Latitude: 15° 15' 40.40" S
Longitude: 012° 08' 48.32" E
Elevation: 210 feet - 64 meters
Operating hours: N/A
Operating agency: Military-civil joint use airport
Timezone: UTC+1
Fuel: Jet fuel avaiable but type is unknown.

Runway information:
08/26 - 8202 x 148 feet< - >2500 x 45 meters

Recent METARs:
FNMO 131400Z 26012KT 9999 FEW023 27/20 Q1008
FNMO 131500Z 26013KT 9999 FEW026 27/20 Q1007
FNMO 131500Z 26013KT 9999 FEW026 27/20 Q1007

Airport on the map: